Time;durP1;ratioP1;P1;durP2;ratioP2;P2;SDS_P1;SDS_P2;PMS_P1;PMS_P2;Temp;Humidity;BMP_temperature;BMP_pressure;BME280_temperature;BME280_humidity;BME280_pressure;Samples;Min_cycle;Max_cycle;Signal;HPM_P1;HPM_P2
2022/08/25 00:02:00;;;;;;;19.27;7.95;;;;;;;21.61;100.00;101453.09;5038173;28;20026;-68
2022/08/25 00:04:27;;;;;;;19.48;8.20;;;;;;;21.53;100.00;101454.22;5042576;28;20033;-68
2022/08/25 00:06:54;;;;;;;19.65;8.13;;;;;;;21.41;100.00;101457.28;5043967;28;20035;-67
2022/08/25 00:09:22;;;;;;;18.52;7.75;;;;;;;21.30;100.00;101451.38;5043002;28;20543;-67
2022/08/25 00:11:49;;;;;;;18.92;7.78;;;;;;;21.30;100.00;101460.28;5042637;28;20029;-66
2022/08/25 00:14:19;;;;;;;19.00;8.10;;;;;;;21.18;100.00;101452.63;5044072;28;20500;-66
2022/08/25 00:16:44;;;;;;;18.27;8.02;;;;;;;21.16;100.00;101449.09;5042395;28;20377;-66
2022/08/25 00:19:14;;;;;;;18.55;8.23;;;;;;;21.20;100.00;101461.50;5043190;28;20028;-67
2022/08/25 00:21:41;;;;;;;19.45;8.38;;;;;;;21.22;100.00;101452.47;5041747;28;20022;-67
2022/08/25 00:24:08;;;;;;;18.42;8.05;;;;;;;21.34;100.00;101463.78;5044311;28;20033;-67
2022/08/25 00:26:36;;;;;;;19.13;8.15;;;;;;;21.14;100.00;101445.56;5036993;28;20040;-66
2022/08/25 00:29:02;;;;;;;18.20;8.15;;;;;;;21.01;100.00;101454.03;5044363;28;20043;-66
2022/08/25 00:31:28;;;;;;;19.67;8.15;;;;;;;20.97;100.00;101446.97;5041906;28;20534;-66
2022/08/25 00:33:54;;;;;;;19.75;7.97;;;;;;;20.95;100.00;101450.63;5043099;28;20029;-66
2022/08/25 00:36:20;;;;;;;18.25;8.25;;;;;;;20.90;100.00;101465.06;5043284;28;20017;-66
2022/08/25 00:38:47;;;;;;;18.70;8.35;;;;;;;20.80;100.00;101458.19;5042085;28;20025;-66
2022/08/25 00:41:16;;;;;;;19.58;8.30;;;;;;;20.77;100.00;101458.28;5043731;28;20048;-67
2022/08/25 00:43:41;;;;;;;18.45;8.57;;;;;;;20.89;100.00;101457.91;5041513;28;20033;-66
2022/08/25 00:46:14;;;;;;;20.03;8.67;;;;;;;20.90;100.00;101459.69;5044344;28;20369;-66
2022/08/25 00:48:42;;;;;;;20.00;8.75;;;;;;;20.79;100.00;101461.81;5036342;28;20295;-66
2022/08/25 00:51:10;;;;;;;19.15;8.68;;;;;;;20.67;100.00;101454.97;5044178;28;20067;-66
2022/08/25 00:53:36;;;;;;;18.88;8.68;;;;;;;20.75;100.00;101454.78;5036953;28;20056;-67
2022/08/25 00:56:02;;;;;;;18.90;9.35;;;;;;;20.65;100.00;101458.59;5043865;28;20476;-67
2022/08/25 00:58:30;;;;;;;19.48;8.73;;;;;;;20.60;100.00;101460.53;5041769;28;20017;-67
2022/08/25 01:00:57;;;;;;;20.90;8.88;;;;;;;20.55;100.00;101456.16;5043325;28;20113;-67
2022/08/25 01:03:26;;;;;;;19.15;9.00;;;;;;;20.41;100.00;101462.84;5042170;28;20075;-67
2022/08/25 01:05:53;;;;;;;18.58;8.73;;;;;;;20.44;100.00;101455.56;5042334;28;20022;-67
2022/08/25 01:08:24;;;;;;;19.27;9.00;;;;;;;20.36;100.00;101460.28;5042753;28;20037;-67
2022/08/25 01:10:50;;;;;;;19.15;8.48;;;;;;;20.33;100.00;101453.19;5043411;28;20029;-66
2022/08/25 01:13:20;;;;;;;19.70;8.80;;;;;;;20.25;100.00;101454.31;5047368;28;20380;-64
2022/08/25 01:15:48;;;;;;;18.90;8.80;;;;;;;20.24;100.00;101455.22;5046140;28;20037;-67
2022/08/25 01:18:14;;;;;;;18.63;8.68;;;;;;;20.15;100.00;101449.22;5047409;28;20472;-67
2022/08/25 01:20:40;;;;;;;20.55;9.10;;;;;;;20.13;100.00;101459.06;5044684;28;20022;-67
2022/08/25 01:23:06;;;;;;;20.50;9.32;;;;;;;20.20;100.00;101447.25;5048047;28;20025;-65
2022/08/25 01:25:31;;;;;;;20.40;8.98;;;;;;;20.15;100.00;101456.34;5043635;28;20037;-66
2022/08/25 01:27:57;;;;;;;19.93;9.13;;;;;;;20.06;100.00;101446.75;5046919;28;20033;-67
2022/08/25 01:30:23;;;;;;;20.20;9.13;;;;;;;20.01;100.00;101454.03;5046056;28;20322;-67
2022/08/25 01:32:49;;;;;;;18.90;8.70;;;;;;;20.00;100.00;101450.47;5045806;28;20030;-67
2022/08/25 01:35:14;;;;;;;19.17;9.00;;;;;;;19.99;100.00;101450.50;5046954;28;20017;-67
2022/08/25 01:37:39;;;;;;;20.00;8.80;;;;;;;19.87;100.00;101454.38;5044403;28;20040;-66
2022/08/25 01:40:06;;;;;;;18.98;8.90;;;;;;;19.87;100.00;101453.50;5048023;28;20029;-66
2022/08/25 01:42:56;;;;;;;18.83;9.45;;;;;;;19.80;100.00;101452.75;5044714;28;20026;-67
2022/08/25 01:45:21;;;;;;;19.50;9.43;;;;;;;19.83;100.00;101448.22;5044353;28;20045;-65
2022/08/25 01:47:47;;;;;;;20.20;9.57;;;;;;;19.67;100.00;101455.72;5046571;28;20056;-67
2022/08/25 01:50:13;;;;;;;20.58;10.23;;;;;;;19.66;100.00;101451.28;5044338;28;20045;-66
2022/08/25 01:53:06;;;;;;;19.95;10.30;;;;;;;19.60;100.00;101459.47;5047308;28;20033;-66
2022/08/25 01:55:50;;;;;;;21.15;11.27;;;;;;;19.55;100.00;101450.63;5046519;28;20090;-66
2022/08/25 01:58:26;;;;;;;21.05;10.93;;;;;;;19.51;100.00;101454.28;5042231;28;20072;-66
2022/08/25 02:00:54;;;;;;;20.00;10.75;;;;;;;19.49;100.00;101448.97;5045421;28;20025;-67
2022/08/25 02:03:20;;;;;;;21.15;11.30;;;;;;;19.46;100.00;101449.03;5045366;28;20025;-66
2022/08/25 02:05:46;;;;;;;21.23;12.18;;;;;;;19.45;100.00;101444.59;5046385;28;20040;-67
2022/08/25 02:08:11;;;;;;;20.20;11.00;;;;;;;19.42;100.00;101447.34;5043895;28;20449;-66
2022/08/25 02:10:38;;;;;;;22.02;12.18;;;;;;;19.31;100.00;101452.97;5046117;28;20112;-68
2022/08/25 02:13:04;;;;;;;21.45;12.18;;;;;;;19.31;100.00;101454.78;5043697;28;20492;-66
2022/08/25 02:15:30;;;;;;;22.50;12.25;;;;;;;19.20;100.00;101452.31;5046254;28;20071;-66
2022/08/25 02:17:56;;;;;;;21.83;12.45;;;;;;;19.15;100.00;101449.75;5045022;28;20396;-66
2022/08/25 02:20:22;;;;;;;21.42;11.90;;;;;;;19.12;100.00;101448.91;5045206;28;20022;-65
2022/08/25 02:22:50;;;;;;;21.63;12.02;;;;;;;19.04;100.00;101445.53;5044647;28;20032;-66
2022/08/25 02:25:16;;;;;;;21.73;11.60;;;;;;;19.11;100.00;101441.81;5044271;28;20033;-66
2022/08/25 02:27:41;;;;;;;21.10;12.10;;;;;;;19.05;100.00;101442.81;5046776;28;20036;-67
2022/08/25 02:30:07;;;;;;;23.52;13.55;;;;;;;18.95;100.00;101436.78;5043467;28;20034;-67
2022/08/25 02:32:32;;;;;;;21.90;13.13;;;;;;;18.96;100.00;101443.91;5045667;28;20510;-66
2022/08/25 02:34:58;;;;;;;23.27;14.45;;;;;;;18.88;100.00;101442.31;5044215;28;20039;-67
2022/08/25 02:37:23;;;;;;;21.80;13.55;;;;;;;18.78;100.00;101438.88;5044929;28;20087;-64
2022/08/25 02:39:49;;;;;;;23.48;14.70;;;;;;;18.84;100.00;101443.25;5045438;28;20037;-67
2022/08/25 02:42:14;;;;;;;25.67;16.70;;;;;;;18.72;100.00;101428.31;5043727;28;20025;-67
2022/08/25 02:44:40;;;;;;;24.70;15.20;;;;;;;18.71;100.00;101445.28;5046578;28;20035;-66
2022/08/25 02:47:05;;;;;;;23.48;15.55;;;;;;;18.67;100.00;101440.88;5038969;28;20026;-66
2022/08/25 02:49:31;;;;;;;23.10;14.70;;;;;;;18.61;100.00;101442.78;5045551;28;20094;-66
2022/08/25 02:51:59;;;;;;;24.15;14.95;;;;;;;18.67;100.00;101441.78;5044031;28;20076;-66
2022/08/25 02:54:25;;;;;;;22.90;15.32;;;;;;;18.61;100.00;101432.09;5044872;28;20037;-66
2022/08/25 02:56:50;;;;;;;23.27;14.70;;;;;;;18.55;100.00;101429.53;5045116;28;20021;-66
2022/08/25 02:59:17;;;;;;;22.83;14.77;;;;;;;18.61;100.00;101429.41;5044052;28;20537;-66
2022/08/25 03:01:42;;;;;;;24.10;16.23;;;;;;;18.55;100.00;101428.63;5045685;28;20103;-67
2022/08/25 03:04:08;;;;;;;24.63;15.32;;;;;;;18.55;100.00;101420.59;5042695;28;20116;-66
2022/08/25 03:06:33;;;;;;;23.08;15.32;;;;;;;18.52;100.00;101426.03;5045997;28;20029;-66
2022/08/25 03:09:00;;;;;;;24.40;14.93;;;;;;;18.46;100.00;101427.91;5043323;28;20035;-66
2022/08/25 03:11:25;;;;;;;23.30;14.90;;;;;;;18.42;100.00;101420.84;5044873;28;20486;-66
2022/08/25 03:13:52;;;;;;;23.17;14.57;;;;;;;18.32;100.00;101416.59;5044630;28;20108;-66
2022/08/25 03:16:18;;;;;;;23.17;15.20;;;;;;;18.27;100.00;101432.72;5043374;28;20068;-65
2022/08/25 03:18:44;;;;;;;22.95;15.63;;;;;;;18.16;100.00;101413.31;5045403;28;20009;-66
2022/08/25 03:21:12;;;;;;;23.17;15.23;;;;;;;18.17;100.00;101416.88;5042643;28;20037;-66
2022/08/25 03:23:39;;;;;;;23.98;15.85;;;;;;;18.15;100.00;101416.03;5038820;28;20029;-65
2022/08/25 03:28:49;;;;;;;23.15;15.27;;;;;;;18.05;100.00;101413.50;5041164;28;20098;-67
2022/08/25 03:31:14;;;;;;;23.88;15.25;;;;;;;18.03;100.00;101406.44;5045292;28;20485;-67
2022/08/25 03:33:39;;;;;;;23.40;14.90;;;;;;;18.00;100.00;101402.00;5041796;28;20037;-68
2022/08/25 03:36:07;;;;;;;23.98;15.13;;;;;;;18.03;100.00;101406.44;5045428;28;20025;-67
2022/08/25 03:38:32;;;;;;;23.42;15.10;;;;;;;18.00;100.00;101407.34;5041274;28;20021;-68
2022/08/25 03:40:58;;;;;;;23.40;15.20;;;;;;;18.03;100.00;101401.94;5044397;28;20037;-68
2022/08/25 03:43:23;;;;;;;23.83;15.60;;;;;;;18.08;100.00;101400.06;5043511;28;20040;-67
2022/08/25 03:45:48;;;;;;;23.77;14.95;;;;;;;18.01;100.00;101393.06;5043152;28;20032;-68
2022/08/25 03:48:15;;;;;;;23.65;15.00;;;;;;;18.04;100.00;101401.06;5044701;28;20037;-68
2022/08/25 03:50:49;;;;;;;23.98;16.10;;;;;;;18.11;100.00;101400.03;5041776;28;20057;-68
2022/08/25 03:53:14;;;;;;;23.48;15.25;;;;;;;18.17;100.00;101403.50;5038564;28;20069;-69
2022/08/25 03:55:40;;;;;;;24.17;14.80;;;;;;;18.24;100.00;101394.44;5045153;28;20071;-68
2022/08/25 03:58:05;;;;;;;23.40;15.05;;;;;;;18.18;100.00;101395.44;5037512;28;20033;-67
2022/08/25 04:00:31;;;;;;;23.63;15.25;;;;;;;18.16;100.00;101383.88;5044525;28;20031;-69
2022/08/25 04:02:56;;;;;;;24.42;15.38;;;;;;;18.12;100.00;101390.19;5043071;28;20100;-68
2022/08/25 04:05:22;;;;;;;23.58;14.98;;;;;;;18.18;100.00;101381.19;5042273;28;20029;-68
2022/08/25 04:07:47;;;;;;;24.33;15.63;;;;;;;18.19;100.00;101381.16;5044001;28;20574;-69
2022/08/25 04:10:13;;;;;;;23.52;14.85;;;;;;;18.25;100.00;101385.50;5041818;28;20108;-69
2022/08/25 04:12:38;;;;;;;23.35;14.85;;;;;;;18.18;100.00;101379.38;5045056;28;20043;-70
2022/08/25 04:15:05;;;;;;;23.10;13.77;;;;;;;18.24;100.00;101376.56;5041439;28;20029;-64
2022/08/25 04:17:31;;;;;;;22.92;14.55;;;;;;;18.18;100.00;101383.84;5044036;28;20036;-64
2022/08/25 04:19:56;;;;;;;23.88;14.10;;;;;;;18.11;100.00;101389.34;5043071;28;20021;-64
2022/08/25 04:22:22;;;;;;;25.20;14.95;;;;;;;18.10;100.00;101389.31;5042780;28;20028;-62
2022/08/25 04:24:47;;;;;;;24.77;15.38;;;;;;;18.11;100.00;101388.44;5043718;28;20084;-62
2022/08/25 04:27:13;;;;;;;25.70;15.23;;;;;;;18.06;100.00;101390.31;5040332;28;20029;-60
2022/08/25 04:29:38;;;;;;;24.10;14.73;;;;;;;18.01;100.00;101382.34;5044515;28;20037;-65
2022/08/25 04:32:04;;;;;;;23.65;14.18;;;;;;;17.99;100.00;101378.84;5041648;28;20032;-64
2022/08/25 04:34:30;;;;;;;24.30;13.82;;;;;;;17.90;100.00;101379.88;5043823;28;20346;-64
2022/08/25 04:36:55;;;;;;;25.77;15.00;;;;;;;17.86;100.00;101383.47;5042760;28;20031;-62
2022/08/25 04:39:20;;;;;;;24.38;15.45;;;;;;;17.82;100.00;101375.56;5042131;28;20022;-62
2022/08/25 04:41:47;;;;;;;24.70;15.63;;;;;;;17.81;100.00;101372.00;5043913;28;20025;-61
2022/08/25 04:44:13;;;;;;;25.25;15.32;;;;;;;17.84;100.00;101363.03;5040769;28;20128;-62
2022/08/25 04:46:38;;;;;;;23.13;14.85;;;;;;;17.80;100.00;101372.03;5044041;28;20126;-65
2022/08/25 04:49:04;;;;;;;24.92;14.65;;;;;;;17.82;100.00;101370.19;5041333;28;20037;-62
2022/08/25 04:51:33;;;;;;;24.92;14.35;;;;;;;17.86;100.00;101369.25;5043114;28;20041;-65
2022/08/25 04:54:01;;;;;;;24.50;14.55;;;;;;;17.84;100.00;101363.03;5041788;28;20518;-62
2022/08/25 04:56:27;;;;;;;25.00;14.80;;;;;;;17.87;100.00;101365.66;5043305;28;20029;-65
2022/08/25 04:58:54;;;;;;;25.55;14.50;;;;;;;17.85;100.00;101362.13;5042573;28;20461;-68
2022/08/25 05:01:23;;;;;;;27.10;14.43;;;;;;;17.78;100.00;101369.38;5040762;28;20041;-67
2022/08/25 05:03:55;;;;;;;25.27;14.35;;;;;;;17.83;100.00;101367.50;5043229;28;20383;-68
2022/08/25 05:06:21;;;;;;;25.35;14.43;;;;;;;17.76;100.00;101364.03;5041954;28;20443;-68
2022/08/25 05:08:46;;;;;;;24.45;13.77;;;;;;;17.72;100.00;101369.47;5043415;28;20040;-68
2022/08/25 05:11:16;;;;;;;29.75;14.52;;;;;;;17.69;100.00;101373.09;5040970;28;20552;-68
2022/08/25 05:13:42;;;;;;;27.27;14.38;;;;;;;17.81;100.00;101376.44;5044046;28;20020;-67
2022/08/25 05:16:07;;;;;;;30.48;14.50;;;;;;;17.87;100.00;101379.91;5036834;28;20095;-68
2022/08/25 05:18:33;;;;;;;28.25;14.25;;;;;;;17.88;100.00;101383.47;5043578;28;20472;-68
2022/08/25 05:21:05;;;;;;;24.15;13.98;;;;;;;17.90;100.00;101384.38;5041571;28;20386;-68
2022/08/25 05:23:31;;;;;;;25.38;14.25;;;;;;;18.00;100.00;101387.72;5043224;28;20380;-68
2022/08/25 05:26:03;;;;;;;24.15;14.25;;;;;;;18.00;100.00;101396.66;5042159;28;20426;-68
2022/08/25 05:28:28;;;;;;;23.80;14.23;;;;;;;18.14;100.00;101398.19;5042735;28;20086;-68
2022/08/25 05:30:58;;;;;;;27.27;14.27;;;;;;;18.43;100.00;101405.66;5042227;28;20128;-69
2022/08/25 05:33:24;;;;;;;26.33;12.95;;;;;;;18.63;100.00;101398.13;5041955;28;20496;-67
2022/08/25 05:35:49;;;;;;;23.98;13.45;;;;;;;18.74;100.00;101403.28;5042054;28;20043;-68
2022/08/25 05:38:14;;;;;;;22.90;11.63;;;;;;;18.88;100.00;101402.13;5040817;28;20108;-68
2022/08/25 05:40:40;;;;;;;25.58;12.27;;;;;;;19.02;100.00;101400.03;5044123;28;20111;-69
2022/08/25 05:43:05;;;;;;;25.00;12.02;;;;;;;19.16;100.00;101403.28;5039595;28;20033;-69
2022/08/25 05:45:30;;;;;;;22.75;11.50;;;;;;;19.25;100.00;101403.97;5042663;28;20040;-69
2022/08/25 05:47:57;;;;;;;25.17;11.93;;;;;;;19.34;100.00;101404.66;5031777;28;20017;-61
2022/08/25 05:50:22;;;;;;;26.15;12.20;;;;;;;19.32;100.00;101402.91;5034430;28;20140;-61
2022/08/25 05:52:48;;;;;;;23.88;11.73;;;;;;;19.32;100.00;101408.28;5030223;28;20124;-60
2022/08/25 05:55:16;;;;;;;24.25;12.07;;;;;;;19.28;100.00;101412.84;5031151;28;20045;-61
2022/08/25 05:57:43;;;;;;;28.33;12.57;;;;;;;19.26;100.00;101405.75;5037445;28;20106;-61
2022/08/25 06:00:09;;;;;;;22.98;11.20;;;;;;;19.34;100.00;101409.13;5035396;28;20033;-63
2022/08/25 06:02:40;;;;;;;21.30;10.77;;;;;;;19.41;100.00;101413.44;5035145;28;20038;-60
2022/08/25 06:05:07;;;;;;;23.27;11.52;;;;;;;19.45;100.00;101419.59;5036043;28;20079;-60
2022/08/25 06:07:32;;;;;;;22.80;10.93;;;;;;;19.56;100.00;101425.59;5035875;28;20053;-62
2022/08/25 06:09:58;;;;;;;26.60;11.27;;;;;;;19.66;100.00;101415.53;5035213;28;20059;-63
2022/08/25 06:12:23;;;;;;;31.38;11.57;;;;;;;19.67;100.00;101415.50;5036154;28;20117;-63
2022/08/25 06:14:48;;;;;;;23.90;10.02;;;;;;;19.77;100.00;101412.56;5036533;28;20021;-61
2022/08/25 06:17:15;;;;;;;24.27;9.10;;;;;;;19.88;100.00;101421.28;5038507;28;20029;-64
2022/08/25 06:19:40;;;;;;;23.00;9.02;;;;;;;19.99;100.00;101411.16;5037227;28;20079;-70
2022/08/25 06:22:05;;;;;;;20.45;8.20;;;;;;;20.10;100.00;101410.84;5034857;28;20458;-61
2022/08/25 06:24:32;;;;;;;22.45;8.45;;;;;;;20.20;100.00;101408.81;5037114;28;20431;-64
2022/08/25 06:26:57;;;;;;;23.17;9.10;;;;;;;20.32;100.00;101412.97;5034331;28;20056;-60
2022/08/25 06:29:23;;;;;;;24.20;8.77;;;;;;;20.45;94.81;101419.75;5033984;28;20025;-59
2022/08/25 06:31:48;;;;;;;20.88;7.60;;;;;;;20.58;90.93;101416.75;5036025;28;20152;-59
2022/08/25 06:34:15;;;;;;;23.02;8.13;;;;;;;20.70;88.35;101413.72;5039113;28;20056;-60
2022/08/25 06:36:40;;;;;;;22.55;8.10;;;;;;;20.80;88.03;101417.03;5034632;28;20036;-60
2022/08/25 06:39:07;;;;;;;21.73;7.20;;;;;;;20.87;83.98;101414.09;5038377;28;20412;-60
2022/08/25 06:41:32;;;;;;;22.33;7.32;;;;;;;20.94;82.61;101413.91;5033436;28;20031;-61
2022/08/25 06:43:58;;;;;;;22.98;8.05;;;;;;;21.04;82.67;101412.72;5039443;28;20029;-61
2022/08/25 06:46:26;;;;;;;22.75;7.38;;;;;;;21.13;80.13;101417.81;5034529;28;20100;-69
2022/08/25 06:48:53;;;;;;;23.20;7.20;;;;;;;21.25;77.81;101411.19;5037180;28;20384;-62
2022/08/25 06:51:20;;;;;;;20.90;6.95;;;;;;;21.36;77.57;101414.41;5034208;28;20056;-63
2022/08/25 06:53:48;;;;;;;21.42;6.70;;;;;;;21.45;75.77;101417.72;5033976;28;20037;-60
2022/08/25 06:56:15;;;;;;;20.98;7.32;;;;;;;21.54;76.40;101415.66;5033315;28;20030;-60
2022/08/25 06:58:40;;;;;;;23.45;7.03;;;;;;;21.61;77.36;101410.06;5033563;28;20228;-71
2022/08/25 07:01:15;;;;;;;21.00;7.10;;;;;;;21.73;74.71;101412.38;5028294;28;20033;-67
2022/08/25 07:03:41;;;;;;;22.75;7.25;;;;;;;21.85;73.99;101406.56;5036567;28;20022;-60
2022/08/25 07:06:07;;;;;;;20.92;7.00;;;;;;;21.94;73.86;101406.28;5040633;28;20026;-61
2022/08/25 07:08:34;;;;;;;22.23;6.93;;;;;;;22.10;73.52;101408.41;5033281;28;20392;-59
2022/08/25 07:11:07;;;;;;;19.90;6.35;;;;;;;22.24;71.59;101400.72;5035687;28;20056;-60
2022/08/25 07:13:33;;;;;;;19.55;6.40;;;;;;;22.38;70.62;101394.00;5033241;28;20524;-61
2022/08/25 07:15:58;;;;;;;21.67;6.55;;;;;;;22.41;68.44;101399.25;5039521;28;20126;-62
2022/08/25 07:18:25;;;;;;;21.17;6.63;;;;;;;22.43;67.69;101395.59;5036434;28;20420;-59
2022/08/25 07:20:52;;;;;;;21.73;6.50;;;;;;;22.48;68.51;101397.25;5035532;28;20103;-61
2022/08/25 07:23:19;;;;;;;21.60;6.88;;;;;;;22.51;71.62;101398.00;5034289;28;20036;-60
2022/08/25 07:25:45;;;;;;;20.80;7.35;;;;;;;22.59;70.88;101392.34;5034575;28;20030;-59
2022/08/25 07:28:10;;;;;;;22.02;6.78;;;;;;;22.69;70.90;101395.53;5038096;28;20032;-59
2022/08/25 07:30:36;;;;;;;20.90;7.03;;;;;;;22.74;69.28;101397.13;5035549;28;20377;-61
2022/08/25 07:33:02;;;;;;;20.35;6.75;;;;;;;22.84;69.59;101397.66;5034988;28;20036;-60
2022/08/25 07:35:27;;;;;;;20.98;7.15;;;;;;;22.94;70.27;101390.97;5032146;28;20052;-61
2022/08/25 07:37:57;;;;;;;20.10;6.72;;;;;;;23.10;67.75;101388.59;5037548;28;20526;-60
2022/08/25 07:40:30;;;;;;;18.25;6.50;;;;;;;23.23;65.59;101390.81;5036454;28;20013;-60
2022/08/25 07:42:58;;;;;;;21.40;6.90;;;;;;;23.33;65.29;101390.38;5036462;28;20032;-62
2022/08/25 07:45:29;;;;;;;21.52;7.00;;;;;;;23.46;66.04;101393.44;5035451;28;20017;-65
2022/08/25 07:48:00;;;;;;;20.83;6.90;;;;;;;23.53;65.44;101396.75;5039600;28;20475;-63
2022/08/25 07:50:28;;;;;;;18.77;6.30;;;;;;;23.62;63.92;101395.50;5034942;28;20102;-63
2022/08/25 07:52:54;;;;;;;20.00;6.28;;;;;;;23.71;63.79;101389.75;5031672;28;20030;-71
2022/08/25 07:55:20;;;;;;;20.90;6.30;;;;;;;23.80;62.69;101391.16;5035391;28;20025;-71
2022/08/25 07:57:46;;;;;;;20.30;6.40;;;;;;;23.89;61.46;101388.09;5037859;28;20377;-71
2022/08/25 08:00:13;;;;;;;19.65;5.93;;;;;;;24.06;60.60;101389.19;5036483;28;20461;-70
2022/08/25 08:02:40;;;;;;;19.10;6.07;;;;;;;24.19;60.09;101385.03;5032634;28;20380;-70
2022/08/25 08:05:06;;;;;;;20.63;6.00;;;;;;;24.37;60.20;101391.41;5037619;28;20029;-71
2022/08/25 08:07:32;;;;;;;19.92;6.03;;;;;;;24.61;58.41;101385.84;5044584;28;20024;-70
2022/08/25 08:09:57;;;;;;;18.50;5.63;;;;;;;24.90;57.28;101384.50;5042546;28;20037;-71
2022/08/25 08:12:24;;;;;;;18.67;5.78;;;;;;;25.10;56.08;101377.28;5043413;28;20026;-70
2022/08/25 08:14:50;;;;;;;19.00;5.70;;;;;;;25.32;55.27;101377.13;5043602;28;20098;-70
2022/08/25 08:17:16;;;;;;;17.45;5.57;;;;;;;25.73;54.59;101382.28;5042293;28;20538;-71
2022/08/25 08:19:42;;;;;;;19.35;5.90;;;;;;;26.04;51.79;101378.91;5044422;28;20044;-71
2022/08/25 08:22:10;;;;;;;17.88;5.25;;;;;;;26.36;51.03;101376.34;5041336;28;20060;-71
2022/08/25 08:24:38;;;;;;;17.35;5.40;;;;;;;26.49;49.54;101379.25;5037748;28;20029;-71
2022/08/25 08:27:07;;;;;;;16.75;5.30;;;;;;;26.67;50.48;101382.78;5044251;28;20490;-71
2022/08/25 08:29:34;;;;;;;19.75;5.22;;;;;;;26.66;49.61;101380.16;5041394;28;20029;-70
2022/08/25 08:31:59;;;;;;;18.40;5.50;;;;;;;26.73;50.78;101381.59;5043900;28;20106;-71
2022/08/25 08:34:24;;;;;;;17.33;5.30;;;;;;;26.92;49.95;101376.91;5042704;28;20064;-70
2022/08/25 08:36:50;;;;;;;17.58;5.13;;;;;;;27.17;48.54;101374.66;5042285;28;20063;-71
2022/08/25 08:39:15;;;;;;;20.88;5.20;;;;;;;27.67;46.88;101381.72;5043820;28;20033;-71
2022/08/25 08:42:15;;;;;;;18.10;5.00;;;;;;;27.95;46.97;101383.63;5039807;28;20022;-71
2022/08/25 08:44:43;;;;;;;17.80;4.78;;;;;;;28.41;44.74;101379.97;5037955;28;20026;-71
2022/08/25 08:47:42;;;;;;;19.92;5.00;;;;;;;29.23;45.91;101366.63;5044626;28;20033;-72
2022/08/25 08:50:33;;;;;;;16.85;5.10;;;;;;;30.22;42.94;101377.16;5036831;28;20046;-71
2022/08/25 08:53:01;;;;;;;17.55;4.93;;;;;;;30.67;38.11;101384.03;5043011;28;20041;-71
2022/08/25 08:55:37;;;;;;;16.17;4.68;;;;;;;31.12;38.16;101368.03;5042266;28;20029;-71
2022/08/25 08:58:19;;;;;;;17.65;4.82;;;;;;;31.44;37.01;101375.63;5043947;28;20032;-72
2022/08/25 09:00:54;;;;;;;18.55;4.90;;;;;;;31.43;35.97;101371.19;5038493;28;20100;-72
2022/08/25 09:03:36;;;;;;;16.63;4.85;;;;;;;31.79;36.81;101377.56;5042810;28;20498;-71
2022/08/25 09:06:06;;;;;;;18.67;4.60;;;;;;;32.47;34.93;101377.75;5044057;28;20024;-72
2022/08/25 09:08:32;;;;;;;16.20;5.03;;;;;;;33.18;32.20;101378.34;5041496;28;20117;-72
2022/08/25 09:11:11;;;;;;;12.88;4.43;;;;;;;33.95;34.16;101376.47;5042908;28;20489;-72
2022/08/25 09:14:03;;;;;;;17.98;4.40;;;;;;;34.71;32.20;101380.81;5037025;28;20358;-72
2022/08/25 09:16:53;;;;;;;16.13;4.45;;;;;;;35.15;30.27;101381.41;5042306;28;20043;-69
2022/08/25 09:19:44;;;;;;;15.60;4.30;;;;;;;35.16;29.52;101382.28;5039795;28;20029;-69
2022/08/25 09:22:22;;;;;;;15.07;4.40;;;;;;;34.71;30.70;101375.34;5037015;28;20542;-69
2022/08/25 09:25:02;;;;;;;17.13;4.47;;;;;;;33.74;30.37;101375.56;5038913;28;20537;-69
2022/08/25 09:27:53;;;;;;;15.68;4.30;;;;;;;33.17;31.82;101375.72;5041556;28;20052;-69
2022/08/25 09:30:21;;;;;;;13.93;3.93;;;;;;;33.36;30.67;101367.75;5039366;28;20037;-69
2022/08/25 09:32:49;;;;;;;13.95;4.32;;;;;;;34.02;29.60;101372.19;5046404;28;20275;-63
2022/08/25 09:35:22;;;;;;;14.10;4.10;;;;;;;34.50;28.83;101375.38;5048325;28;20021;-66
2022/08/25 09:38:05;;;;;;;16.02;4.10;;;;;;;34.83;28.58;101373.38;5040436;28;20469;-65
2022/08/25 09:40:34;;;;;;;14.32;4.05;;;;;;;35.36;27.22;101366.72;5043640;28;20461;-68
2022/08/25 09:43:04;;;;;;;14.43;4.00;;;;;;;35.79;27.46;101370.97;5045776;28;20428;-65
2022/08/25 09:45:42;;;;;;;17.75;4.60;;;;;;;36.68;26.58;101368.88;5045576;28;20484;-66
2022/08/25 09:48:26;;;;;;;14.50;4.28;;;;;;;37.74;25.52;101357.34;5044763;28;20429;-67
2022/08/25 09:50:57;;;;;;;14.95;4.00;;;;;;;38.72;23.39;101365.41;5041603;28;20481;-67
2022/08/25 09:53:23;;;;;;;16.02;4.30;;;;;;;39.25;22.30;101360.63;5047029;28;20036;-67
2022/08/25 09:55:59;;;;;;;12.82;3.90;;;;;;;39.63;21.08;101351.88;5044247;28;20029;-65
2022/08/25 09:58:24;;;;;;;14.05;3.60;;;;;;;40.24;20.15;101355.97;5046520;28;20419;-67
2022/08/25 10:01:15;;;;;;;15.43;3.72;;;;;;;40.57;20.81;101358.69;5044317;28;20026;-67
2022/08/25 10:03:54;;;;;;;12.15;3.90;;;;;;;40.90;20.22;101339.16;5044450;28;20456;-68
2022/08/25 10:06:21;;;;;;;15.52;4.00;;;;;;;41.04;19.59;101339.41;5040983;28;20075;-68
2022/08/25 10:08:46;;;;;;;15.07;4.10;;;;;;;41.06;19.79;101321.56;5047269;28;20035;-67
2022/08/25 10:11:32;;;;;;;11.13;3.85;;;;;;;41.67;20.75;101331.00;5044189;28;20116;-68
2022/08/25 10:14:30;;;;;;;12.68;3.92;;;;;;;42.26;20.31;101331.16;5042662;28;20049;-68
2022/08/25 10:17:16;;;;;;;15.20;4.10;;;;;;;41.90;19.44;101320.75;5041505;28;20120;-67
2022/08/25 10:19:42;;;;;;;12.73;3.90;;;;;;;42.08;19.29;101319.53;5043798;28;20025;-67
2022/08/25 10:22:20;;;;;;;13.70;4.15;;;;;;;42.01;19.69;101324.13;5046236;28;20053;-67
2022/08/25 10:24:46;;;;;;;13.15;4.28;;;;;;;41.83;18.57;101317.00;5038501;28;20029;-67
2022/08/25 10:27:37;;;;;;;8.75;3.70;;;;;;;41.84;19.02;101318.75;5046645;28;20028;-66
2022/08/25 10:30:26;;;;;;;10.90;3.80;;;;;;;42.10;19.79;101311.84;5043840;28;20056;-66
2022/08/25 10:33:18;;;;;;;11.98;3.90;;;;;;;42.24;20.11;101302.69;5040814;28;20034;-67
2022/08/25 10:35:52;;;;;;;11.95;3.90;;;;;;;41.03;19.42;101296.97;5039331;28;20022;-66
2022/08/25 10:38:44;;;;;;;14.73;4.30;;;;;;;39.29;21.59;101294.78;5039531;28;20495;-66
2022/08/25 10:41:28;;;;;;;12.63;3.90;;;;;;;38.07;23.01;101292.25;5046008;28;20055;-66
2022/08/25 10:45:41;;;;;;;13.32;3.90;;;;;;;37.82;23.51;101289.34;5040340;28;20037;-67
2022/08/25 10:47:25;;;;;;;14.13;4.20;;;;;;;38.24;23.05;101286.84;5041953;28;20037;-65
2022/08/25 10:49:55;;;;;;;14.02;4.10;;;;;;;37.95;22.99;101286.16;5039689;28;20468;-65
2022/08/25 10:52:25;;;;;;;10.80;3.85;;;;;;;37.38;23.22;101277.41;5046133;28;20048;-65
2022/08/25 10:55:07;;;;;;;13.98;3.92;;;;;;;37.01;23.71;101268.25;5043299;28;20109;-66
2022/08/25 10:57:58;;;;;;;14.10;3.97;;;;;;;37.54;23.96;101280.28;5044349;28;20021;-66
2022/08/25 11:00:31;;;;;;;12.98;4.00;;;;;;;37.81;22.71;101273.81;5040707;28;20021;-67
2022/08/25 11:03:14;;;;;;;14.98;4.18;;;;;;;38.59;22.84;101276.63;5045102;28;20369;-67
2022/08/25 11:05:45;;;;;;;12.90;4.00;;;;;;;39.30;21.22;101271.66;5045466;28;20033;-67
2022/08/25 11:08:25;;;;;;;9.93;3.50;;;;;;;39.70;19.63;101272.69;5043314;28;20075;-66
2022/08/25 11:11:01;;;;;;;12.03;3.30;;;;;;;39.62;19.63;101269.94;5039785;28;20427;-66
2022/08/25 11:13:49;;;;;;;11.02;3.70;;;;;;;40.64;19.81;101266.56;5045333;28;20023;-65
2022/08/25 11:16:20;;;;;;;12.57;3.85;;;;;;;41.48;18.57;101269.47;5038415;28;20021;-60
2022/08/25 11:19:04;;;;;;;12.45;3.92;;;;;;;42.42;17.64;101270.91;5037833;28;20079;-67
2022/08/25 11:21:55;;;;;;;13.18;3.97;;;;;;;42.81;17.57;101272.47;5041829;28;20465;-64
2022/08/25 11:24:45;;;;;;;11.48;3.70;;;;;;;43.94;16.90;101256.00;5039356;28;20045;-67